createdAt,value
2019-01-18T00:02:01.954Z,27.67
2019-01-18T00:04:33.406Z,18.97
2019-01-18T00:07:04.860Z,20.43
2019-01-18T00:09:36.199Z,21.47
2019-01-18T00:12:07.610Z,25.80
2019-01-18T00:14:38.993Z,22.07
2019-01-18T00:17:10.310Z,18.53
2019-01-18T00:19:41.634Z,20.53
2019-01-18T00:22:14.349Z,25.33
2019-01-18T00:24:46.191Z,19.57
2019-01-18T00:27:20.746Z,27.47
2019-01-18T00:29:52.263Z,18.43
2019-01-18T00:32:32.371Z,22.70
2019-01-18T00:35:32.070Z,20.43
2019-01-18T00:38:22.878Z,18.57
2019-01-18T00:41:19.899Z,26.70
2019-01-18T00:44:10.762Z,22.77
2019-01-18T00:46:49.190Z,27.13
2019-01-18T00:49:20.641Z,23.67
2019-01-18T00:51:52.033Z,28.10
2019-01-18T00:54:23.576Z,27.03
2019-01-18T00:56:54.919Z,25.07
2019-01-18T00:59:26.307Z,28.50
2019-01-18T01:01:57.688Z,28.90
2019-01-18T01:04:29.445Z,26.27
2019-01-18T01:07:00.664Z,29.93
2019-01-18T01:09:32.529Z,27.33
2019-01-18T01:12:05.361Z,30.73
2019-01-18T01:14:36.854Z,33.37
2019-01-18T01:17:08.720Z,52.90
2019-01-18T01:19:40.212Z,53.53
2019-01-18T01:22:11.568Z,50.07
2019-01-18T01:24:43.040Z,54.47
2019-01-18T01:27:14.563Z,39.77
2019-01-18T01:29:46.015Z,34.63
2019-01-18T01:32:17.491Z,26.20
2019-01-18T01:34:49.025Z,21.80
2019-01-18T01:37:20.561Z,21.40
2019-01-18T01:39:51.983Z,27.83
2019-01-18T01:42:23.451Z,32.83
2019-01-18T01:44:54.988Z,33.23
2019-01-18T01:47:26.455Z,38.83
2019-01-18T01:49:57.996Z,38.80
2019-01-18T01:52:29.579Z,32.33
2019-01-18T01:55:01.372Z,27.00
2019-01-18T01:57:32.861Z,24.73
2019-01-18T02:00:06.034Z,23.33
2019-01-18T02:02:37.549Z,27.20
2019-01-18T02:05:09.259Z,21.10
2019-01-18T02:07:40.688Z,25.43
2019-01-18T02:10:13.734Z,23.87
2019-01-18T02:12:45.288Z,26.63
2019-01-18T02:15:19.230Z,19.33
2019-01-18T02:17:50.855Z,18.57
2019-01-18T02:20:23.093Z,18.20
2019-01-18T02:22:54.727Z,34.03
2019-01-18T02:25:26.059Z,37.97
2019-01-18T02:27:57.509Z,31.40
2019-01-18T02:30:31.690Z,23.27
2019-01-18T02:33:03.221Z,25.87
2019-01-18T02:35:34.576Z,22.80
2019-01-18T02:38:06.392Z,19.03
2019-01-18T02:40:37.741Z,14.33
2019-01-18T02:43:09.143Z,11.50
2019-01-18T02:45:40.491Z,16.20
2019-01-18T02:48:11.852Z,18.63
2019-01-18T02:50:43.389Z,16.00
2019-01-18T02:53:14.833Z,14.57
2019-01-18T02:55:46.272Z,13.10
2019-01-18T02:58:17.711Z,12.73
2019-01-18T03:00:49.161Z,15.70
2019-01-18T03:03:20.709Z,17.93
2019-01-18T03:05:52.137Z,15.70
2019-01-18T03:08:23.574Z,10.33
2019-01-18T03:10:54.766Z,10.83
2019-01-18T03:13:26.172Z,21.00
2019-01-18T03:15:57.546Z,17.93
2019-01-18T03:18:29.078Z,14.93
2019-01-18T03:21:00.480Z,15.53
2019-01-18T03:23:31.789Z,17.33
2019-01-18T03:26:03.341Z,16.87
2019-01-18T03:28:34.733Z,17.20
2019-01-18T03:31:06.186Z,16.03
2019-01-18T03:33:37.550Z,17.77
2019-01-18T03:36:08.991Z,15.27
2019-01-18T03:38:40.428Z,16.00
2019-01-18T03:41:11.901Z,15.77
2019-01-18T03:43:43.223Z,18.90
2019-01-18T03:46:14.636Z,18.13
2019-01-18T03:48:45.909Z,16.13
2019-01-18T03:51:17.440Z,19.33
2019-01-18T03:53:48.825Z,20.27
2019-01-18T03:56:20.278Z,17.47
2019-01-18T03:58:51.714Z,18.60
2019-01-18T04:01:23.188Z,19.60
2019-01-18T04:03:54.599Z,25.37
2019-01-18T04:06:26.037Z,35.10
2019-01-18T04:08:57.481Z,44.53
2019-01-18T04:11:29.080Z,34.07
2019-01-18T04:14:01.601Z,38.50
2019-01-18T04:16:33.291Z,30.30
2019-01-18T04:19:04.659Z,21.13
2019-01-18T04:21:36.074Z,19.87
2019-01-18T04:24:07.487Z,19.07
2019-01-18T04:26:38.980Z,17.53
2019-01-18T04:29:10.570Z,21.83
2019-01-18T04:31:42.008Z,21.20
2019-01-18T04:34:13.430Z,19.73
2019-01-18T04:36:44.812Z,19.80
2019-01-18T04:39:16.300Z,21.73
2019-01-18T04:41:47.781Z,24.67
2019-01-18T04:44:19.150Z,22.70
2019-01-18T04:46:50.590Z,19.77
2019-01-18T04:49:22.038Z,31.10
2019-01-18T04:51:53.277Z,18.03
2019-01-18T04:54:24.581Z,15.67
2019-01-18T04:56:55.957Z,16.30
2019-01-18T04:59:27.367Z,15.40
2019-01-18T05:01:58.786Z,15.53
2019-01-18T05:04:32.019Z,14.50
2019-01-18T05:07:03.679Z,16.40
2019-01-18T05:09:35.296Z,13.53
2019-01-18T05:12:06.747Z,25.80
2019-01-18T05:14:38.335Z,17.50
2019-01-18T05:17:09.844Z,12.77
2019-01-18T05:19:41.642Z,19.50
2019-01-18T05:22:13.132Z,16.50
2019-01-18T05:24:49.325Z,20.77
2019-01-18T05:27:17.769Z,21.17
2019-01-18T05:29:49.189Z,19.20
2019-01-18T05:32:20.581Z,32.20
2019-01-18T05:34:51.913Z,26.57
2019-01-18T05:37:23.367Z,40.27
2019-01-18T05:39:54.844Z,36.93
2019-01-18T05:42:26.333Z,45.03
2019-01-18T05:44:57.807Z,30.20
2019-01-18T05:47:29.145Z,21.63
2019-01-18T05:51:23.768Z,23.20
2019-01-18T05:54:02.797Z,17.57
2019-01-18T05:56:34.209Z,14.77
2019-01-18T05:59:05.684Z,14.67
2019-01-18T06:01:37.321Z,13.43
2019-01-18T06:04:10.241Z,15.70
2019-01-18T06:06:41.940Z,14.00
2019-01-18T06:09:13.448Z,14.90
2019-01-18T06:11:44.961Z,16.27
2019-01-18T06:14:16.516Z,13.30
2019-01-18T06:16:48.020Z,13.83
2019-01-18T06:19:19.491Z,13.07
2019-01-18T06:21:50.792Z,13.43
2019-01-18T06:24:22.258Z,35.93
2019-01-18T06:26:53.716Z,23.67
2019-01-18T06:29:25.314Z,13.57
2019-01-18T06:31:56.661Z,23.03
2019-01-18T06:34:28.061Z,17.17
2019-01-18T06:37:06.733Z,18.83
2019-01-18T06:39:38.221Z,36.20
2019-01-18T06:42:13.666Z,30.53
2019-01-18T06:44:47.300Z,28.90
2019-01-18T06:47:18.750Z,19.00
2019-01-18T06:49:50.199Z,10.40
2019-01-18T06:52:21.546Z,11.90
2019-01-18T06:54:53.001Z,13.43
2019-01-18T06:57:24.473Z,11.97
2019-01-18T06:59:55.940Z,12.43
2019-01-18T07:02:27.676Z,12.13
2019-01-18T07:04:59.757Z,15.80
2019-01-18T07:07:31.353Z,18.90
2019-01-18T07:10:03.040Z,17.60
2019-01-18T07:12:34.772Z,27.57
2019-01-18T07:15:09.418Z,44.83
2019-01-18T07:17:40.862Z,43.63
2019-01-18T07:20:13.932Z,18.87
2019-01-18T07:22:45.540Z,12.33
2019-01-18T07:25:19.401Z,11.30
2019-01-18T07:27:50.758Z,10.00
2019-01-18T07:30:24.955Z,12.20
2019-01-18T07:32:56.562Z,9.03
2019-01-18T07:35:28.225Z,8.80
2019-01-18T07:37:59.859Z,9.57
2019-01-18T07:40:31.345Z,8.93
2019-01-18T07:43:02.875Z,14.53
2019-01-18T07:45:34.393Z,17.30
2019-01-18T07:48:06.113Z,24.50
2019-01-18T07:50:37.554Z,13.77
2019-01-18T07:53:09.118Z,18.10
2019-01-18T07:55:40.579Z,15.57
2019-01-18T07:58:11.980Z,13.60
2019-01-18T08:00:43.580Z,11.93
2019-01-18T08:03:15.129Z,12.77
2019-01-18T08:05:47.029Z,16.77
2019-01-18T08:08:18.615Z,17.77
2019-01-18T08:10:51.242Z,17.20
2019-01-18T08:13:22.771Z,14.83
2019-01-18T08:15:54.295Z,18.37
2019-01-18T08:18:25.900Z,22.90
2019-01-18T08:21:15.208Z,17.87
2019-01-18T08:23:56.492Z,16.30
2019-01-18T08:26:27.931Z,16.27
2019-01-18T08:28:59.369Z,14.47
2019-01-18T08:31:30.947Z,15.10
2019-01-18T08:34:02.526Z,16.70
2019-01-18T08:36:34.014Z,14.73
2019-01-18T08:39:08.233Z,16.93
2019-01-18T08:41:39.863Z,17.40
2019-01-18T08:44:11.205Z,19.93
2019-01-18T08:46:42.842Z,28.13
2019-01-18T08:49:14.391Z,31.77
2019-01-18T08:51:45.906Z,22.13
2019-01-18T08:54:17.352Z,27.37
2019-01-18T08:56:48.870Z,18.63
2019-01-18T08:59:20.330Z,11.33
2019-01-18T09:01:51.850Z,11.37
2019-01-18T09:04:23.299Z,14.83
2019-01-18T09:06:54.745Z,13.00
2019-01-18T09:09:26.381Z,9.67
2019-01-18T09:11:57.759Z,15.77
2019-01-18T09:14:29.202Z,13.90
2019-01-18T09:17:00.631Z,14.87
2019-01-18T09:19:32.224Z,19.43
2019-01-18T09:22:12.328Z,14.90
2019-01-18T09:24:43.766Z,13.50
2019-01-18T09:27:15.219Z,13.70
2019-01-18T09:29:46.740Z,16.40
2019-01-18T09:32:18.441Z,20.73
2019-01-18T09:34:50.033Z,20.27
2019-01-18T09:37:21.641Z,16.53
2019-01-18T09:40:03.136Z,15.80
2019-01-18T09:42:36.707Z,19.40
2019-01-18T09:45:09.441Z,17.47
2019-01-18T09:47:40.933Z,21.27
2019-01-18T09:50:22.133Z,25.73
2019-01-18T09:52:56.640Z,19.00
2019-01-18T09:55:29.019Z,16.80
2019-01-18T09:58:00.431Z,21.83
2019-01-18T10:00:36.871Z,21.27
2019-01-18T10:03:08.241Z,21.13
2019-01-18T10:05:39.738Z,19.60
2019-01-18T10:08:12.918Z,20.37
2019-01-18T10:10:44.387Z,24.83
2019-01-18T10:13:15.858Z,21.17
2019-01-18T10:15:48.300Z,20.73
2019-01-18T10:18:19.748Z,22.23
2019-01-18T10:20:52.021Z,31.23
2019-01-18T10:23:23.418Z,19.37
2019-01-18T10:25:54.846Z,21.70
2019-01-18T10:28:26.445Z,21.17
2019-01-18T10:30:58.046Z,24.10
2019-01-18T10:33:29.515Z,20.00
2019-01-18T10:36:01.007Z,22.60
2019-01-18T10:38:32.357Z,18.27
2019-01-18T10:41:03.803Z,20.73
2019-01-18T10:43:35.118Z,21.53
2019-01-18T10:46:06.500Z,20.43
2019-01-18T10:48:37.921Z,17.73
2019-01-18T10:51:09.471Z,19.13
2019-01-18T10:53:40.936Z,17.97
2019-01-18T10:56:12.416Z,23.47
2019-01-18T10:58:43.819Z,31.17
2019-01-18T11:01:15.202Z,30.40
2019-01-18T11:03:46.725Z,20.70
2019-01-18T11:06:18.189Z,19.00
2019-01-18T11:08:49.607Z,20.50
2019-01-18T11:11:21.087Z,13.90
2019-01-18T11:13:52.305Z,21.20
2019-01-18T11:16:25.026Z,25.70
2019-01-18T11:18:56.696Z,25.43
2019-01-18T11:21:28.199Z,20.47
2019-01-18T11:23:59.676Z,17.60
2019-01-18T11:26:31.117Z,21.83
2019-01-18T11:29:02.653Z,23.73
2019-01-18T11:31:33.943Z,24.30
2019-01-18T11:34:05.411Z,18.03
2019-01-18T11:36:36.971Z,22.07
2019-01-18T11:39:09.469Z,25.67
2019-01-18T11:41:40.844Z,19.97
2019-01-18T11:44:12.102Z,24.97
2019-01-18T11:46:43.452Z,21.13
2019-01-18T11:49:14.865Z,13.90
2019-01-18T11:51:46.253Z,15.27
2019-01-18T11:54:17.756Z,17.37
2019-01-18T11:56:49.449Z,18.93
2019-01-18T11:59:20.970Z,13.70
2019-01-18T12:01:52.413Z,30.73
2019-01-18T12:04:23.833Z,15.77
2019-01-18T12:06:55.269Z,17.43
2019-01-18T12:09:26.728Z,14.03
2019-01-18T12:11:58.012Z,18.23
2019-01-18T12:14:29.431Z,22.40
2019-01-18T12:17:00.971Z,26.00
2019-01-18T12:19:33.592Z,24.23
2019-01-18T12:22:05.174Z,20.40
2019-01-18T12:24:36.781Z,21.03
2019-01-18T12:27:08.309Z,20.17
2019-01-18T12:29:39.723Z,17.83
2019-01-18T12:32:11.244Z,20.70
2019-01-18T12:34:42.800Z,28.63
2019-01-18T12:37:14.312Z,36.57
2019-01-18T12:39:45.692Z,40.27
2019-01-18T12:42:17.093Z,23.87
2019-01-18T12:44:48.451Z,25.57
2019-01-18T12:47:19.960Z,22.50
2019-01-18T12:49:51.412Z,20.67
2019-01-18T12:52:22.940Z,24.30
2019-01-18T12:54:54.449Z,35.80
2019-01-18T12:57:25.860Z,23.83
2019-01-18T12:59:57.351Z,28.17
2019-01-18T13:02:35.180Z,28.87
2019-01-18T13:05:02.145Z,36.93
2019-01-18T13:07:33.653Z,31.77
2019-01-18T13:10:11.606Z,20.80
2019-01-18T13:12:38.489Z,24.63
2019-01-18T13:15:14.358Z,24.57
2019-01-18T13:17:45.793Z,34.63
2019-01-18T13:20:17.458Z,24.03
2019-01-18T13:22:49.040Z,28.70
2019-01-18T13:25:20.622Z,36.03
2019-01-18T13:27:52.222Z,25.37
2019-01-18T13:30:23.573Z,19.57
2019-01-18T13:32:55.034Z,19.37
2019-01-18T13:35:27.648Z,20.47
2019-01-18T13:37:59.289Z,23.37
2019-01-18T13:40:30.827Z,19.07
2019-01-18T13:43:02.264Z,21.30
2019-01-18T13:45:33.754Z,23.47
2019-01-18T13:48:05.382Z,22.63
2019-01-18T13:50:36.951Z,20.60
2019-01-18T13:53:09.514Z,30.73
2019-01-18T13:55:40.999Z,34.50
2019-01-18T13:58:12.431Z,34.67
2019-01-18T14:00:43.937Z,35.27
2019-01-18T14:03:15.419Z,38.43
2019-01-18T14:05:46.909Z,40.43
2019-01-18T14:08:18.431Z,30.77
2019-01-18T14:10:49.848Z,24.47
2019-01-18T14:13:21.477Z,18.67
2019-01-18T14:15:52.967Z,42.07
2019-01-18T14:18:24.403Z,57.30
2019-01-18T14:20:55.940Z,65.10
2019-01-18T14:23:27.362Z,56.03
2019-01-18T14:25:58.841Z,50.40
2019-01-18T14:28:30.382Z,105.27
2019-01-18T14:31:01.997Z,92.73
2019-01-18T14:33:33.577Z,61.57
2019-01-18T14:36:05.232Z,45.83
2019-01-18T14:38:36.695Z,50.43
2019-01-18T14:41:08.146Z,51.63
2019-01-18T14:43:39.653Z,53.87
2019-01-18T14:46:11.187Z,62.43
2019-01-18T14:48:42.703Z,55.17
2019-01-18T14:51:14.082Z,250.93
2019-01-18T14:53:45.539Z,195.80
2019-01-18T14:56:16.911Z,110.23
2019-01-18T14:58:48.459Z,74.67
2019-01-18T15:01:19.809Z,87.07
2019-01-18T15:03:54.177Z,136.77
2019-01-18T15:06:24.467Z,86.93
2019-01-18T15:08:55.960Z,81.33
2019-01-18T15:11:27.582Z,80.37
2019-01-18T15:13:58.950Z,83.17
2019-01-18T15:16:30.377Z,176.03
2019-01-18T15:19:01.979Z,141.67
2019-01-18T15:21:33.314Z,129.93
2019-01-18T15:24:05.104Z,82.47
2019-01-18T15:26:36.395Z,78.87
2019-01-18T15:29:07.881Z,65.93
2019-01-18T15:31:39.296Z,46.77
2019-01-18T15:34:10.693Z,47.67
2019-01-18T15:36:42.015Z,36.47
2019-01-18T15:39:14.357Z,44.50
2019-01-18T15:41:45.697Z,35.20
2019-01-18T15:44:17.219Z,19.63
2019-01-18T15:46:48.709Z,14.67
2019-01-18T15:49:20.133Z,12.17
2019-01-18T15:51:51.591Z,23.30
2019-01-18T15:54:23.028Z,18.20
2019-01-18T15:56:54.452Z,23.23
2019-01-18T15:59:26.078Z,18.63
2019-01-18T16:01:57.620Z,18.67
2019-01-18T16:04:29.085Z,20.03
2019-01-18T16:07:01.462Z,16.33
2019-01-18T16:09:33.049Z,17.20
2019-01-18T16:12:04.595Z,19.63
2019-01-18T16:14:36.063Z,16.93
2019-01-18T16:17:12.731Z,15.77
2019-01-18T16:19:44.338Z,12.37
2019-01-18T16:22:15.689Z,10.43
2019-01-18T16:24:47.048Z,12.07
2019-01-18T16:27:18.483Z,17.83
2019-01-18T16:29:49.874Z,23.30
2019-01-18T16:32:21.924Z,25.43
2019-01-18T16:34:53.410Z,20.93
2019-01-18T16:37:24.942Z,18.07
2019-01-18T16:39:56.488Z,28.37
2019-01-18T16:42:28.065Z,35.13
2019-01-18T16:44:59.573Z,27.87
2019-01-18T16:47:30.950Z,32.57
2019-01-18T16:50:02.462Z,30.77
2019-01-18T16:52:33.846Z,25.53
2019-01-18T16:55:05.823Z,26.50
2019-01-18T16:57:37.236Z,25.53
2019-01-18T17:00:20.600Z,29.33
2019-01-18T17:02:52.154Z,25.27
2019-01-18T17:05:27.304Z,16.13
2019-01-18T17:08:00.164Z,19.57
2019-01-18T17:10:31.651Z,13.93
2019-01-18T17:13:03.019Z,19.60
2019-01-18T17:15:34.468Z,18.73
2019-01-18T17:18:06.231Z,22.80
2019-01-18T17:20:40.355Z,25.37
2019-01-18T17:23:11.946Z,21.30
2019-01-18T17:25:43.486Z,31.93
2019-01-18T17:28:14.938Z,47.23
2019-01-18T17:30:46.405Z,58.20
2019-01-18T17:33:17.883Z,65.67
2019-01-18T17:36:00.142Z,64.60
2019-01-18T17:39:08.081Z,40.63
2019-01-18T17:42:11.270Z,31.13
2019-01-18T17:45:32.410Z,24.67
2019-01-18T17:48:36.594Z,35.43
2019-01-18T17:51:42.198Z,34.57
2019-01-18T17:54:38.600Z,33.27
2019-01-18T17:57:33.790Z,30.03
2019-01-18T18:00:32.319Z,22.50
2019-01-18T18:03:36.749Z,24.67
2019-01-18T18:06:46.133Z,26.57
2019-01-18T18:09:37.197Z,71.10
2019-01-18T18:13:07.372Z,28.27
2019-01-18T18:16:14.978Z,28.23
2019-01-18T18:19:21.527Z,35.27
2019-01-18T18:22:08.657Z,26.63
2019-01-18T18:25:10.268Z,31.03
2019-01-18T18:28:03.196Z,31.23
2019-01-18T18:30:57.688Z,30.43
2019-01-18T18:33:52.406Z,34.87
2019-01-18T18:36:56.345Z,43.67
2019-01-18T18:40:12.698Z,115.47
2019-01-18T18:43:15.313Z,163.57
2019-01-18T18:46:12.080Z,242.70
2019-01-18T18:49:19.109Z,147.70
2019-01-18T18:52:20.396Z,119.37
2019-01-18T18:55:29.471Z,206.63
2019-01-18T18:58:41.278Z,330.03
2019-01-18T19:01:41.754Z,444.27
2019-01-18T19:04:48.576Z,119.97
2019-01-18T19:08:03.576Z,79.83
2019-01-18T19:11:00.623Z,46.20
2019-01-18T19:14:06.182Z,32.60
2019-01-18T19:17:26.437Z,32.60
2019-01-18T19:20:56.182Z,35.33
2019-01-18T19:23:53.514Z,68.83
2019-01-18T19:27:05.371Z,48.80
2019-01-18T19:30:04.283Z,37.03
2019-01-18T19:33:20.510Z,34.23
2019-01-18T19:36:27.975Z,50.60
2019-01-18T19:39:34.463Z,33.50
2019-01-18T19:42:28.872Z,34.23
2019-01-18T19:45:32.566Z,33.43
2019-01-18T19:48:33.205Z,30.90
2019-01-18T19:51:44.874Z,41.83
2019-01-18T19:55:08.900Z,38.93
2019-01-18T19:58:03.992Z,111.03
2019-01-18T20:01:05.546Z,86.37
2019-01-18T20:04:21.701Z,114.43
2019-01-18T20:07:21.242Z,62.07
2019-01-18T20:10:41.209Z,40.27
2019-01-18T20:13:54.057Z,42.77
2019-01-18T20:16:41.245Z,36.97
2019-01-18T20:19:38.937Z,35.10
2019-01-18T20:22:32.188Z,32.60
2019-01-18T20:25:22.697Z,25.63
2019-01-18T20:28:31.881Z,29.57
2019-01-18T20:31:41.302Z,26.87
2019-01-18T20:34:40.750Z,31.53
2019-01-18T20:38:07.212Z,23.70
2019-01-18T20:41:14.795Z,20.67
2019-01-18T20:44:00.459Z,21.17
2019-01-18T20:47:18.407Z,19.40
2019-01-18T20:50:39.144Z,21.83
2019-01-18T20:53:19.390Z,21.00
2019-01-18T20:56:28.366Z,18.50
2019-01-18T20:59:14.030Z,17.40
2019-01-18T21:02:36.982Z,24.90
2019-01-18T21:05:54.424Z,27.00
2019-01-18T21:09:09.750Z,25.07
2019-01-18T21:12:14.560Z,67.37
2019-01-18T21:15:20.281Z,22.70
2019-01-18T21:18:20.388Z,30.00
2019-01-18T21:21:50.770Z,23.57
2019-01-18T21:24:46.966Z,19.57
2019-01-18T21:27:54.237Z,23.70
2019-01-18T21:31:03.360Z,21.90
2019-01-18T21:34:33.077Z,25.23
2019-01-18T21:37:30.365Z,27.67
2019-01-18T21:40:29.758Z,26.30
2019-01-18T21:43:46.675Z,21.47
2019-01-18T21:47:06.615Z,19.70
2019-01-18T21:50:03.394Z,23.73
2019-01-18T21:53:09.913Z,19.00
2019-01-18T21:56:01.821Z,20.73
2019-01-18T21:59:13.069Z,21.33
2019-01-18T22:02:22.441Z,46.10
2019-01-18T22:05:14.009Z,19.00
2019-01-18T22:08:34.869Z,22.53
2019-01-18T22:11:21.131Z,30.87
2019-01-18T22:14:37.415Z,28.83
2019-01-18T22:17:49.615Z,34.83
2019-01-18T22:21:01.234Z,31.60
2019-01-18T22:23:56.514Z,31.10
2019-01-18T22:27:23.444Z,27.07
2019-01-18T22:30:45.920Z,27.07
2019-01-18T22:33:32.010Z,28.93
2019-01-18T22:36:45.562Z,22.70
2019-01-18T22:39:46.099Z,27.57
2019-01-18T22:42:55.715Z,19.77
2019-01-18T22:45:58.826Z,28.73
2019-01-18T22:48:57.267Z,26.10
2019-01-18T22:52:10.770Z,31.53
2019-01-18T22:55:29.052Z,23.60
2019-01-18T22:58:36.738Z,46.53
2019-01-18T23:02:19.453Z,32.00
2019-01-18T23:05:13.580Z,25.17
2019-01-18T23:08:21.361Z,26.33
2019-01-18T23:11:29.491Z,34.57
2019-01-18T23:14:55.688Z,24.00
2019-01-18T23:18:10.519Z,32.60
2019-01-18T23:21:10.181Z,14.77
2019-01-18T23:24:05.362Z,20.80
2019-01-18T23:27:22.773Z,14.73
2019-01-18T23:30:14.727Z,13.57
2019-01-18T23:33:38.632Z,14.07
2019-01-18T23:36:37.237Z,14.97
2019-01-18T23:39:38.653Z,9.43
2019-01-18T23:42:52.145Z,10.17
2019-01-18T23:45:43.710Z,9.90
2019-01-18T23:48:51.979Z,8.83
2019-01-18T23:51:47.753Z,5.43
2019-01-18T23:54:56.193Z,7.50
2019-01-18T23:58:22.863Z,6.57
